createdAt,value
2023-02-26T00:01:40.278Z,101952.54
2023-02-26T00:04:08.545Z,101950.21
2023-02-26T00:06:38.354Z,101947.67
2023-02-26T00:09:06.558Z,101952.98
2023-02-26T00:11:35.049Z,101958.08
2023-02-26T00:14:02.944Z,101958.52
2023-02-26T00:16:32.781Z,101964.01
2023-02-26T00:19:02.143Z,101968.10
2023-02-26T00:21:30.966Z,101966.88
2023-02-26T00:23:58.697Z,101968.78
2023-02-26T00:26:27.603Z,101975.98
2023-02-26T00:28:56.047Z,101978.03
2023-02-26T00:31:27.400Z,101984.59
2023-02-26T00:33:56.005Z,101985.95
2023-02-26T00:36:25.824Z,101982.31
2023-02-26T00:39:07.647Z,101977.13
2023-02-26T00:41:36.537Z,101978.36
2023-02-26T00:44:04.664Z,101982.38
2023-02-26T00:46:35.520Z,101985.45
2023-02-26T00:49:09.535Z,101989.94
2023-02-26T00:51:56.921Z,101995.29
2023-02-26T00:54:24.922Z,101995.59
2023-02-26T00:56:53.413Z,101992.42
2023-02-26T00:59:22.086Z,101988.85
2023-02-26T01:01:50.188Z,101987.38
2023-02-26T01:04:19.505Z,101988.50
2023-02-26T01:06:49.221Z,101989.08
2023-02-26T01:09:23.325Z,101989.82
2023-02-26T01:11:51.545Z,101990.04
2023-02-26T01:14:20.009Z,101986.80
2023-02-26T01:17:11.361Z,101988.77
2023-02-26T01:19:44.173Z,101996.00
2023-02-26T01:22:36.220Z,102000.94
2023-02-26T01:25:07.105Z,102006.42
2023-02-26T01:27:35.207Z,102006.00
2023-02-26T01:30:04.619Z,102003.17
2023-02-26T01:32:35.429Z,102002.38
2023-02-26T01:35:03.616Z,102001.93
2023-02-26T01:37:54.186Z,102003.05
2023-02-26T01:40:41.182Z,102004.67
2023-02-26T01:43:14.853Z,102006.59
2023-02-26T01:45:54.075Z,102018.53
2023-02-26T01:48:42.057Z,102030.56
2023-02-26T01:51:09.791Z,102041.14
2023-02-26T01:53:37.545Z,102036.42
2023-02-26T01:56:10.271Z,102025.99
2023-02-26T01:58:39.241Z,102018.90
2023-02-26T02:01:07.887Z,102020.86
2023-02-26T02:03:38.383Z,102013.67
2023-02-26T02:06:08.367Z,102010.98
2023-02-26T02:08:36.779Z,102013.09
2023-02-26T02:11:07.258Z,102022.80
2023-02-26T02:13:35.109Z,102021.99
2023-02-26T02:16:09.266Z,102019.87
2023-02-26T02:18:59.094Z,102021.70
2023-02-26T02:21:44.850Z,102020.64
2023-02-26T02:24:20.300Z,102021.85
2023-02-26T02:26:50.824Z,102026.20
2023-02-26T02:29:47.542Z,102025.09
2023-02-26T02:32:18.624Z,102027.98
2023-02-26T02:34:49.467Z,102028.81
2023-02-26T02:37:35.914Z,102034.34
2023-02-26T02:40:11.663Z,102034.16
2023-02-26T02:42:43.707Z,102032.41
2023-02-26T02:45:17.599Z,102032.19
2023-02-26T02:47:47.905Z,102032.83
2023-02-26T02:50:20.525Z,102032.74
2023-02-26T02:52:54.591Z,102029.55
2023-02-26T02:55:25.235Z,102033.25
2023-02-26T02:58:00.752Z,102036.22
2023-02-26T03:00:32.040Z,102043.50
2023-02-26T03:03:09.567Z,102042.09
2023-02-26T03:05:37.292Z,102038.59
2023-02-26T03:08:09.031Z,102041.09
2023-02-26T03:10:36.886Z,102044.13
2023-02-26T03:13:05.217Z,102047.30
2023-02-26T03:15:38.655Z,102047.20
2023-02-26T03:18:15.492Z,102039.83
2023-02-26T03:21:15.816Z,102041.65
2023-02-26T03:23:50.253Z,102046.95
2023-02-26T03:26:26.870Z,102045.30
2023-02-26T03:28:59.320Z,102047.30
2023-02-26T03:31:31.984Z,102050.14
2023-02-26T03:34:23.723Z,102050.02
2023-02-26T03:36:55.565Z,102046.98
2023-02-26T03:39:27.133Z,102045.30
2023-02-26T03:41:58.177Z,102050.40
2023-02-26T03:44:26.822Z,102056.84
2023-02-26T03:46:59.642Z,102059.70
2023-02-26T03:49:32.049Z,102063.94
2023-02-26T03:52:00.868Z,102066.45
2023-02-26T03:54:36.018Z,102075.91
2023-02-26T03:57:04.539Z,102077.18
2023-02-26T03:59:33.938Z,102078.65
2023-02-26T04:02:16.493Z,102078.58
2023-02-26T04:04:47.728Z,102073.98
2023-02-26T04:07:17.228Z,102078.58
2023-02-26T04:09:46.668Z,102076.29
2023-02-26T04:12:15.070Z,102083.86
2023-02-26T04:14:42.906Z,102083.14
2023-02-26T04:17:10.838Z,102085.69
2023-02-26T04:19:38.619Z,102082.19
2023-02-26T04:22:06.960Z,102088.91
2023-02-26T04:24:34.852Z,102088.38
2023-02-26T04:27:02.872Z,102093.02
2023-02-26T04:29:30.681Z,102097.55
2023-02-26T04:31:58.618Z,102098.06
2023-02-26T04:34:26.492Z,102097.02
2023-02-26T04:36:54.265Z,102096.46
2023-02-26T04:39:21.977Z,102098.32
2023-02-26T04:41:51.058Z,102099.33
2023-02-26T04:44:18.829Z,102104.97
2023-02-26T04:46:47.655Z,102109.58
2023-02-26T04:49:15.841Z,102109.20
2023-02-26T04:51:43.910Z,102113.71
2023-02-26T04:54:11.636Z,102114.04
2023-02-26T04:56:39.575Z,102123.87
2023-02-26T04:59:07.287Z,102123.71
2023-02-26T05:01:36.039Z,102123.86
2023-02-26T05:04:03.813Z,102121.23
2023-02-26T05:06:31.682Z,102121.38
2023-02-26T05:09:00.053Z,102117.91
2023-02-26T05:11:28.164Z,102117.94
2023-02-26T05:13:56.479Z,102123.01
2023-02-26T05:16:24.689Z,102121.09
2023-02-26T05:18:53.270Z,102126.35
2023-02-26T05:21:22.732Z,102129.85
2023-02-26T05:23:51.706Z,102137.52
2023-02-26T05:26:19.466Z,102137.73
2023-02-26T05:28:47.233Z,102136.94
2023-02-26T05:31:15.677Z,102136.30
2023-02-26T05:33:43.494Z,102135.20
2023-02-26T05:36:11.401Z,102142.72
2023-02-26T05:38:39.246Z,102142.77
2023-02-26T05:41:06.977Z,102143.88
2023-02-26T05:43:34.803Z,102152.61
2023-02-26T05:46:02.577Z,102153.54
2023-02-26T05:48:30.338Z,102157.82
2023-02-26T05:50:58.202Z,102162.40
2023-02-26T05:53:26.229Z,102157.77
2023-02-26T05:55:54.337Z,102157.74
2023-02-26T05:58:22.187Z,102160.82
2023-02-26T06:00:50.559Z,102165.61
2023-02-26T06:03:18.311Z,102167.13
2023-02-26T06:05:46.046Z,102165.16
2023-02-26T06:08:15.738Z,102168.23
2023-02-26T06:10:43.763Z,102169.93
2023-02-26T06:13:11.848Z,102172.70
2023-02-26T06:15:39.567Z,102177.23
2023-02-26T06:18:08.303Z,102183.34
2023-02-26T06:20:36.159Z,102185.96
2023-02-26T06:23:04.346Z,102189.76
2023-02-26T06:25:32.117Z,102193.22
2023-02-26T06:27:59.914Z,102197.21
2023-02-26T06:30:27.798Z,102200.85
2023-02-26T06:32:56.108Z,102202.39
2023-02-26T06:35:24.459Z,102204.23
2023-02-26T06:37:52.242Z,102205.95
2023-02-26T06:40:20.042Z,102208.86
2023-02-26T06:42:47.926Z,102215.23
2023-02-26T06:45:15.868Z,102218.15
2023-02-26T06:47:43.642Z,102218.83
2023-02-26T06:50:12.047Z,102222.70
2023-02-26T06:52:39.942Z,102221.42
2023-02-26T06:55:07.940Z,102221.54
2023-02-26T06:57:35.702Z,102227.54
2023-02-26T07:00:07.830Z,102230.30
2023-02-26T07:02:36.320Z,102231.91
2023-02-26T07:05:04.213Z,102233.37
2023-02-26T07:07:32.489Z,102242.92
2023-02-26T07:10:00.180Z,102247.39
2023-02-26T07:12:28.010Z,102251.84
2023-02-26T07:14:55.716Z,102255.58
2023-02-26T07:17:23.712Z,102260.16
2023-02-26T07:19:52.534Z,102265.13
2023-02-26T07:22:22.040Z,102266.35
2023-02-26T07:24:50.388Z,102263.92
2023-02-26T07:27:18.690Z,102272.81
2023-02-26T07:29:46.457Z,102283.06
2023-02-26T07:32:14.511Z,102283.98
2023-02-26T07:34:42.558Z,102291.80
2023-02-26T07:37:10.374Z,102293.90
2023-02-26T07:39:38.224Z,102295.67
2023-02-26T07:42:06.122Z,102298.62
2023-02-26T07:44:33.910Z,102298.94
2023-02-26T07:47:01.929Z,102298.17
2023-02-26T07:49:29.670Z,102287.01
2023-02-26T07:51:57.476Z,102285.70
2023-02-26T07:54:25.716Z,102295.50
2023-02-26T07:56:53.732Z,102302.36
2023-02-26T07:59:21.507Z,102308.57
2023-02-26T08:01:49.567Z,102318.09
2023-02-26T08:04:17.365Z,102322.86
2023-02-26T08:06:46.199Z,102318.41
2023-02-26T08:09:15.608Z,102314.50
2023-02-26T08:11:43.385Z,102316.67
2023-02-26T08:14:11.667Z,102317.13
2023-02-26T08:16:39.722Z,102323.98
2023-02-26T08:19:07.600Z,102321.78
2023-02-26T08:21:35.383Z,102328.40
2023-02-26T08:24:03.281Z,102329.33
2023-02-26T08:26:31.383Z,102328.98
2023-02-26T08:28:59.162Z,102326.77
2023-02-26T08:31:28.444Z,102327.15
2023-02-26T08:33:57.794Z,102333.58
2023-02-26T08:36:26.763Z,102337.53
2023-02-26T08:38:54.892Z,102342.58
2023-02-26T08:41:23.388Z,102348.64
2023-02-26T08:43:51.936Z,102354.38
2023-02-26T08:46:20.841Z,102355.28
2023-02-26T08:48:48.585Z,102362.75
2023-02-26T08:51:16.637Z,102367.63
2023-02-26T08:53:46.674Z,102367.13
2023-02-26T08:56:14.486Z,102369.73
2023-02-26T08:58:42.331Z,102371.67
2023-02-26T09:01:10.127Z,102381.23
2023-02-26T09:03:37.993Z,102383.85
2023-02-26T09:06:05.930Z,102384.37
2023-02-26T09:08:36.567Z,102387.34
2023-02-26T09:11:05.834Z,102384.17
2023-02-26T09:13:33.567Z,102388.64
2023-02-26T09:16:01.479Z,102384.56
2023-02-26T09:18:29.209Z,102388.08
2023-02-26T09:20:57.852Z,102395.14
2023-02-26T09:23:25.919Z,102397.84
2023-02-26T09:25:55.131Z,102403.67
2023-02-26T09:28:23.797Z,102408.64
2023-02-26T09:30:55.026Z,102409.59
2023-02-26T09:33:23.253Z,102414.21
2023-02-26T09:35:51.356Z,102415.30
2023-02-26T09:38:19.754Z,102414.88
2023-02-26T09:40:52.909Z,102411.34
2023-02-26T09:43:35.784Z,102415.46
2023-02-26T09:46:06.960Z,102413.21
2023-02-26T09:48:36.992Z,102420.68
2023-02-26T09:51:07.205Z,102420.45
2023-02-26T09:53:38.649Z,102425.83
2023-02-26T09:56:24.543Z,102425.84
2023-02-26T09:58:55.679Z,102428.81
2023-02-26T10:01:33.955Z,102433.20
2023-02-26T10:04:04.654Z,102435.80
2023-02-26T10:06:39.741Z,102443.63
2023-02-26T10:09:13.485Z,102439.30
2023-02-26T10:11:42.938Z,102438.74
2023-02-26T10:14:14.413Z,102445.45
2023-02-26T10:16:46.454Z,102445.04
2023-02-26T10:19:16.285Z,102444.79
2023-02-26T10:21:47.006Z,102450.70
2023-02-26T10:24:22.896Z,102454.70
2023-02-26T10:26:54.511Z,102453.30
2023-02-26T10:29:45.683Z,102457.89
2023-02-26T10:32:25.545Z,102460.77
2023-02-26T10:35:03.321Z,102469.92
2023-02-26T10:37:50.237Z,102472.80
2023-02-26T10:40:25.693Z,102471.02
2023-02-26T10:43:02.231Z,102472.48
2023-02-26T10:45:30.123Z,102481.52
2023-02-26T10:48:14.050Z,102483.96
2023-02-26T10:50:46.476Z,102479.79
2023-02-26T10:53:14.344Z,102480.27
2023-02-26T10:55:45.142Z,102485.14
2023-02-26T10:58:14.699Z,102487.36
2023-02-26T11:00:43.969Z,102483.08
2023-02-26T11:03:22.673Z,102486.52
2023-02-26T11:05:50.436Z,102492.37
2023-02-26T11:08:20.904Z,102494.36
2023-02-26T11:10:52.531Z,102492.05
2023-02-26T11:13:22.172Z,102499.03
2023-02-26T11:15:51.581Z,102506.58
2023-02-26T11:18:23.685Z,102505.42
2023-02-26T11:20:54.730Z,102506.83
2023-02-26T11:23:24.826Z,102510.13
2023-02-26T11:25:54.729Z,102509.21
2023-02-26T11:28:26.224Z,102513.83
2023-02-26T11:30:54.756Z,102517.45
2023-02-26T11:33:22.833Z,102517.95
2023-02-26T11:35:51.016Z,102520.59
2023-02-26T11:38:21.761Z,102525.31
2023-02-26T11:40:52.542Z,102526.46
2023-02-26T11:43:21.744Z,102529.38
2023-02-26T11:45:54.044Z,102530.77
2023-02-26T11:48:26.691Z,102535.28
2023-02-26T11:50:59.317Z,102532.03
2023-02-26T11:53:38.227Z,102530.95
2023-02-26T11:56:12.440Z,102531.30
2023-02-26T11:58:41.621Z,102539.20
2023-02-26T12:01:16.788Z,102542.02
2023-02-26T12:03:47.318Z,102546.39
2023-02-26T12:06:17.418Z,102545.68
2023-02-26T12:08:46.132Z,102544.81
2023-02-26T12:11:32.344Z,102541.29
2023-02-26T12:14:06.180Z,102541.25
2023-02-26T12:16:56.183Z,102547.13
2023-02-26T12:19:29.904Z,102544.60
2023-02-26T12:22:12.781Z,102539.63
2023-02-26T12:24:52.674Z,102540.30
2023-02-26T12:27:39.234Z,102542.90
2023-02-26T12:30:07.539Z,102545.77
2023-02-26T12:32:35.281Z,102548.83
2023-02-26T12:35:22.401Z,102549.05
2023-02-26T12:38:02.468Z,102548.55
2023-02-26T12:40:33.074Z,102543.86
2023-02-26T12:43:00.733Z,102549.63
2023-02-26T12:45:38.014Z,102550.67
2023-02-26T12:48:11.761Z,102558.90
2023-02-26T12:50:39.923Z,102560.34
2023-02-26T12:53:11.464Z,102560.61
2023-02-26T12:55:50.246Z,102562.54
2023-02-26T12:58:37.579Z,102563.61
2023-02-26T13:01:20.747Z,102566.42
2023-02-26T13:04:07.468Z,102562.70
2023-02-26T13:06:35.686Z,102566.14
2023-02-26T13:09:12.812Z,102562.79
2023-02-26T13:11:52.746Z,102559.13
2023-02-26T13:14:20.581Z,102560.39
2023-02-26T13:16:51.518Z,102554.59
2023-02-26T13:19:37.152Z,102551.05
2023-02-26T13:22:23.797Z,102548.30
2023-02-26T13:25:17.915Z,102553.25
2023-02-26T13:27:46.483Z,102551.95
2023-02-26T13:30:23.264Z,102559.27
2023-02-26T13:32:53.357Z,102563.14
2023-02-26T13:35:37.229Z,102562.33
2023-02-26T13:38:16.574Z,102561.41
2023-02-26T13:41:00.941Z,102558.88
2023-02-26T13:43:31.765Z,102547.32
2023-02-26T13:46:10.753Z,102541.63
2023-02-26T13:48:54.156Z,102543.23
2023-02-26T13:51:25.773Z,102543.34
2023-02-26T13:53:55.793Z,102542.89
2023-02-26T13:56:32.922Z,102542.18
2023-02-26T13:59:13.544Z,102535.92
2023-02-26T14:01:48.144Z,102543.54
2023-02-26T14:04:19.068Z,102550.27
2023-02-26T14:06:52.007Z,102545.97
2023-02-26T14:09:22.929Z,102553.03
2023-02-26T14:12:02.802Z,102556.05
2023-02-26T14:14:36.016Z,102556.88
2023-02-26T14:17:09.857Z,102557.86
2023-02-26T14:19:39.626Z,102559.44
2023-02-26T14:22:25.893Z,102554.59
2023-02-26T14:24:54.078Z,102559.74
2023-02-26T14:27:24.147Z,102563.07
2023-02-26T14:30:06.531Z,102564.38
2023-02-26T14:32:45.067Z,102556.16
2023-02-26T14:35:22.121Z,102554.23
2023-02-26T14:38:03.852Z,102547.09
2023-02-26T14:40:36.608Z,102544.16
2023-02-26T14:43:05.956Z,102543.30
2023-02-26T14:45:39.137Z,102549.18
2023-02-26T14:48:11.713Z,102554.07
2023-02-26T14:50:57.832Z,102558.91
2023-02-26T14:53:44.532Z,102561.09
2023-02-26T14:56:12.577Z,102565.52
2023-02-26T14:58:40.906Z,102575.72
2023-02-26T15:01:21.650Z,102574.76
2023-02-26T15:04:03.014Z,102574.33
2023-02-26T15:07:03.570Z,102572.08
2023-02-26T15:09:40.389Z,102569.45
2023-02-26T15:12:08.194Z,102571.64
2023-02-26T15:14:36.297Z,102567.66
2023-02-26T15:17:04.009Z,102568.39
2023-02-26T15:19:34.731Z,102573.86
2023-02-26T15:22:02.545Z,102571.45
2023-02-26T15:24:31.230Z,102569.01
2023-02-26T15:27:02.074Z,102569.11
2023-02-26T15:29:31.984Z,102568.54
2023-02-26T15:32:03.238Z,102566.70
2023-02-26T15:34:33.578Z,102568.85
2023-02-26T15:37:01.407Z,102567.61
2023-02-26T15:39:29.393Z,102569.11
2023-02-26T15:41:57.727Z,102569.75
2023-02-26T15:44:28.806Z,102572.20
2023-02-26T15:46:59.389Z,102576.34
2023-02-26T15:49:32.364Z,102583.85
2023-02-26T15:52:01.721Z,102583.73
2023-02-26T15:54:42.511Z,102586.55
2023-02-26T15:57:11.504Z,102586.69
2023-02-26T15:59:44.151Z,102589.64
2023-02-26T16:02:16.134Z,102589.77
2023-02-26T16:04:44.401Z,102593.58
2023-02-26T16:07:13.253Z,102590.52
2023-02-26T16:09:42.686Z,102586.09
2023-02-26T16:12:13.219Z,102589.75
2023-02-26T16:14:43.973Z,102587.41
2023-02-26T16:17:14.509Z,102589.76
2023-02-26T16:19:44.216Z,102589.52
2023-02-26T16:22:20.449Z,102596.80
2023-02-26T16:24:51.401Z,102597.58
2023-02-26T16:27:19.528Z,102604.23
2023-02-26T16:29:52.026Z,102601.98
2023-02-26T16:32:21.310Z,102596.77
2023-02-26T16:34:51.256Z,102600.63
2023-02-26T16:37:34.027Z,102602.23
2023-02-26T16:40:11.287Z,102603.17
2023-02-26T16:42:45.061Z,102603.80
2023-02-26T16:45:20.221Z,102603.73
2023-02-26T16:47:52.994Z,102603.68
2023-02-26T16:50:32.096Z,102610.83
2023-02-26T16:53:02.621Z,102616.32
2023-02-26T16:55:32.281Z,102613.00
2023-02-26T16:58:03.015Z,102614.75
2023-02-26T17:00:31.442Z,102618.20
2023-02-26T17:03:04.324Z,102615.88
2023-02-26T17:05:34.349Z,102624.17
2023-02-26T17:08:21.406Z,102624.59
2023-02-26T17:11:02.968Z,102629.62
2023-02-26T17:13:32.021Z,102624.98
2023-02-26T17:16:04.143Z,102626.73
2023-02-26T17:18:33.447Z,102634.78
2023-02-26T17:21:10.224Z,102638.48
2023-02-26T17:23:38.685Z,102643.60
2023-02-26T17:26:06.893Z,102648.73
2023-02-26T17:28:40.026Z,102649.80
2023-02-26T17:31:08.336Z,102647.54
2023-02-26T17:33:36.802Z,102661.71
2023-02-26T17:36:04.871Z,102661.58
2023-02-26T17:38:33.593Z,102665.62
2023-02-26T17:41:01.600Z,102663.73
2023-02-26T17:43:29.423Z,102665.33
2023-02-26T17:45:57.223Z,102663.59
2023-02-26T17:48:25.519Z,102665.86
2023-02-26T17:50:55.035Z,102673.53
2023-02-26T17:53:24.149Z,102674.75
2023-02-26T17:55:53.600Z,102681.39
2023-02-26T17:58:24.151Z,102685.54
2023-02-26T18:00:53.362Z,102686.09
2023-02-26T18:03:21.767Z,102685.02
2023-02-26T18:05:50.850Z,102689.70
2023-02-26T18:08:23.869Z,102691.76
2023-02-26T18:10:53.304Z,102690.66
2023-02-26T18:13:21.712Z,102695.34
2023-02-26T18:15:50.081Z,102697.00
2023-02-26T18:18:18.517Z,102699.40
2023-02-26T18:20:46.391Z,102699.73
2023-02-26T18:23:17.240Z,102700.73
2023-02-26T18:25:47.113Z,102706.80
2023-02-26T18:28:17.725Z,102706.25
2023-02-26T18:30:45.519Z,102710.88
2023-02-26T18:33:17.094Z,102706.84
2023-02-26T18:35:47.119Z,102705.92
2023-02-26T18:38:15.864Z,102707.07
2023-02-26T18:40:44.096Z,102710.13
2023-02-26T18:43:12.770Z,102710.09
2023-02-26T18:45:41.310Z,102711.77
2023-02-26T18:48:13.331Z,102710.66
2023-02-26T18:50:41.338Z,102712.14
2023-02-26T18:53:09.216Z,102710.65
2023-02-26T18:55:37.385Z,102716.14
2023-02-26T18:58:05.111Z,102716.58
2023-02-26T19:00:33.887Z,102721.18
2023-02-26T19:03:01.597Z,102719.89
2023-02-26T19:05:29.783Z,102717.20
2023-02-26T19:07:57.504Z,102718.86
2023-02-26T19:10:25.756Z,102717.08
2023-02-26T19:12:53.470Z,102720.46
2023-02-26T19:15:21.536Z,102720.55
2023-02-26T19:17:49.290Z,102717.84
2023-02-26T19:20:17.739Z,102721.58
2023-02-26T19:22:46.806Z,102725.50
2023-02-26T19:25:14.830Z,102723.73
2023-02-26T19:27:42.654Z,102720.02
2023-02-26T19:30:10.714Z,102723.08
2023-02-26T19:32:38.724Z,102727.52
2023-02-26T19:35:07.991Z,102729.34
2023-02-26T19:37:36.292Z,102733.61
2023-02-26T19:40:10.082Z,102736.29
2023-02-26T19:42:38.081Z,102740.35
2023-02-26T19:45:05.944Z,102736.64
2023-02-26T19:47:33.794Z,102740.75
2023-02-26T19:50:01.834Z,102739.11
2023-02-26T19:52:31.845Z,102738.52
2023-02-26T19:55:00.024Z,102737.90
2023-02-26T19:57:28.472Z,102738.30
2023-02-26T19:59:56.247Z,102742.65
2023-02-26T20:02:24.933Z,102744.25
2023-02-26T20:04:53.546Z,102746.23
2023-02-26T20:07:22.267Z,102748.39
2023-02-26T20:09:50.137Z,102752.31
2023-02-26T20:12:18.340Z,102753.79
2023-02-26T20:14:46.080Z,102755.79
2023-02-26T20:17:13.900Z,102755.20
2023-02-26T20:19:41.859Z,102753.38
2023-02-26T20:22:09.869Z,102757.84
2023-02-26T20:24:37.794Z,102760.55
2023-02-26T20:27:07.252Z,102763.61
2023-02-26T20:29:34.993Z,102763.88
2023-02-26T20:32:03.090Z,102767.27
2023-02-26T20:34:31.037Z,102768.40
2023-02-26T20:36:58.773Z,102769.00
2023-02-26T20:39:26.518Z,102776.02
2023-02-26T20:41:54.493Z,102768.66
2023-02-26T20:44:22.193Z,102772.38
2023-02-26T20:46:50.083Z,102772.29
2023-02-26T20:49:18.167Z,102778.77
2023-02-26T20:51:46.625Z,102780.21
2023-02-26T20:54:15.142Z,102777.66
2023-02-26T20:56:42.952Z,102778.05
2023-02-26T20:59:10.776Z,102782.45
2023-02-26T21:01:38.533Z,102785.64
2023-02-26T21:04:07.565Z,102789.13
2023-02-26T21:06:35.948Z,102793.48
2023-02-26T21:09:04.595Z,102798.02
2023-02-26T21:11:36.940Z,102797.67
2023-02-26T21:14:06.097Z,102798.92
2023-02-26T21:16:34.222Z,102799.66
2023-02-26T21:19:03.844Z,102800.38
2023-02-26T21:21:32.033Z,102799.73
2023-02-26T21:24:00.425Z,102797.16
2023-02-26T21:26:28.290Z,102799.11
2023-02-26T21:28:56.205Z,102798.80
2023-02-26T21:31:24.122Z,102796.24
2023-02-26T21:33:52.027Z,102793.17
2023-02-26T21:36:21.280Z,102795.79
2023-02-26T21:38:49.871Z,102798.07
2023-02-26T21:41:17.639Z,102797.75
2023-02-26T21:43:45.814Z,102797.78
2023-02-26T21:46:13.801Z,102794.02
2023-02-26T21:48:41.687Z,102790.93
2023-02-26T21:51:09.364Z,102790.94
2023-02-26T21:53:37.346Z,102798.92
2023-02-26T21:56:05.181Z,102798.41
2023-02-26T21:58:33.260Z,102799.29
2023-02-26T22:01:01.088Z,102801.02
2023-02-26T22:03:28.988Z,102802.75
2023-02-26T22:05:57.165Z,102798.08
2023-02-26T22:08:25.153Z,102801.55
2023-02-26T22:10:52.883Z,102801.59
2023-02-26T22:13:20.758Z,102798.65
2023-02-26T22:15:48.744Z,102795.90
2023-02-26T22:18:16.713Z,102797.66
2023-02-26T22:20:44.454Z,102795.78
2023-02-26T22:23:13.999Z,102799.79
2023-02-26T22:25:41.725Z,102798.96
2023-02-26T22:28:09.885Z,102801.40
2023-02-26T22:30:37.858Z,102797.97
2023-02-26T22:33:05.799Z,102798.36
2023-02-26T22:35:33.501Z,102799.23
2023-02-26T22:38:01.453Z,102797.73
2023-02-26T22:40:29.161Z,102800.92
2023-02-26T22:42:57.104Z,102803.91
2023-02-26T22:45:25.181Z,102802.38
2023-02-26T22:47:52.976Z,102802.74
2023-02-26T22:50:20.703Z,102801.55
2023-02-26T22:52:49.368Z,102806.23
2023-02-26T22:55:17.183Z,102805.54
2023-02-26T22:57:45.556Z,102816.44
2023-02-26T23:00:15.103Z,102820.59
2023-02-26T23:02:42.892Z,102825.77
2023-02-26T23:05:11.135Z,102827.69
2023-02-26T23:07:40.108Z,102832.17
2023-02-26T23:10:09.571Z,102835.48
2023-02-26T23:12:38.577Z,102836.84
2023-02-26T23:15:07.178Z,102840.14
2023-02-26T23:17:35.420Z,102842.23
2023-02-26T23:20:04.238Z,102846.04
2023-02-26T23:22:32.242Z,102848.63
2023-02-26T23:25:00.019Z,102850.16
2023-02-26T23:27:27.896Z,102851.72
2023-02-26T23:29:55.774Z,102852.06
2023-02-26T23:32:24.897Z,102849.46
2023-02-26T23:34:52.807Z,102851.18
2023-02-26T23:37:20.928Z,102852.73
2023-02-26T23:39:49.259Z,102848.05
2023-02-26T23:42:18.174Z,102853.24
2023-02-26T23:44:46.247Z,102852.70
2023-02-26T23:47:14.444Z,102854.42
2023-02-26T23:49:42.279Z,102854.23
2023-02-26T23:52:10.205Z,102853.17
2023-02-26T23:54:39.891Z,102849.36
2023-02-26T23:57:07.805Z,102845.56
2023-02-26T23:59:35.797Z,102847.27
